sensor_id;sensor_type;location;lat;lon;timestamp;P1;durP1;ratioP1;P2;durP2;ratioP2
3211;SDS011;1618;47.056;15.472;2023-06-14T00:02:01;7.40;;;7.10;;
3211;SDS011;1618;47.056;15.472;2023-06-14T00:04:29;7.97;;;7.57;;
3211;SDS011;1618;47.056;15.472;2023-06-14T00:06:57;8.73;;;8.33;;
3211;SDS011;1618;47.056;15.472;2023-06-14T00:09:25;8.90;;;8.50;;
3211;SDS011;1618;47.056;15.472;2023-06-14T00:11:54;9.07;;;8.67;;
3211;SDS011;1618;47.056;15.472;2023-06-14T00:14:23;9.37;;;8.87;;
3211;SDS011;1618;47.056;15.472;2023-06-14T00:16:53;9.57;;;9.17;;
3211;SDS011;1618;47.056;15.472;2023-06-14T00:19:24;8.93;;;8.60;;
3211;SDS011;1618;47.056;15.472;2023-06-14T00:21:52;9.20;;;8.80;;
3211;SDS011;1618;47.056;15.472;2023-06-14T00:24:20;8.70;;;8.37;;
3211;SDS011;1618;47.056;15.472;2023-06-14T00:26:48;9.10;;;8.70;;
3211;SDS011;1618;47.056;15.472;2023-06-14T00:29:17;9.00;;;8.60;;
3211;SDS011;1618;47.056;15.472;2023-06-14T00:31:46;9.40;;;9.00;;
3211;SDS011;1618;47.056;15.472;2023-06-14T00:34:16;10.87;;;10.23;;
3211;SDS011;1618;47.056;15.472;2023-06-14T00:36:43;11.00;;;10.40;;
3211;SDS011;1618;47.056;15.472;2023-06-14T00:39:10;10.20;;;9.80;;
3211;SDS011;1618;47.056;15.472;2023-06-14T00:41:39;9.40;;;8.90;;
3211;SDS011;1618;47.056;15.472;2023-06-14T00:44:07;9.20;;;8.80;;
3211;SDS011;1618;47.056;15.472;2023-06-14T00:46:34;9.43;;;9.03;;
3211;SDS011;1618;47.056;15.472;2023-06-14T00:49:03;8.23;;;7.93;;
3211;SDS011;1618;47.056;15.472;2023-06-14T00:51:33;7.17;;;6.93;;
3211;SDS011;1618;47.056;15.472;2023-06-14T00:54:02;8.27;;;7.80;;
3211;SDS011;1618;47.056;15.472;2023-06-14T00:56:30;9.10;;;8.70;;
3211;SDS011;1618;47.056;15.472;2023-06-14T00:58:57;12.57;;;11.97;;
3211;SDS011;1618;47.056;15.472;2023-06-14T01:01:26;11.50;;;10.90;;
3211;SDS011;1618;47.056;15.472;2023-06-14T01:03:58;11.50;;;11.00;;
3211;SDS011;1618;47.056;15.472;2023-06-14T01:06:30;10.77;;;10.00;;
3211;SDS011;1618;47.056;15.472;2023-06-14T01:09:03;11.87;;;11.27;;
3211;SDS011;1618;47.056;15.472;2023-06-14T01:11:36;10.33;;;9.93;;
3211;SDS011;1618;47.056;15.472;2023-06-14T01:14:06;10.77;;;10.27;;
3211;SDS011;1618;47.056;15.472;2023-06-14T01:16:35;9.87;;;9.37;;
3211;SDS011;1618;47.056;15.472;2023-06-14T01:19:05;9.07;;;8.60;;
3211;SDS011;1618;47.056;15.472;2023-06-14T01:21:35;8.70;;;8.30;;
3211;SDS011;1618;47.056;15.472;2023-06-14T01:24:08;8.40;;;7.77;;
3211;SDS011;1618;47.056;15.472;2023-06-14T01:26:37;7.07;;;6.77;;
3211;SDS011;1618;47.056;15.472;2023-06-14T01:29:10;6.73;;;6.43;;
3211;SDS011;1618;47.056;15.472;2023-06-14T01:31:42;6.10;;;5.80;;
3211;SDS011;1618;47.056;15.472;2023-06-14T01:34:10;5.80;;;5.60;;
3211;SDS011;1618;47.056;15.472;2023-06-14T01:36:43;5.47;;;5.17;;
3211;SDS011;1618;47.056;15.472;2023-06-14T01:39:14;5.67;;;5.47;;
3211;SDS011;1618;47.056;15.472;2023-06-14T01:41:41;5.20;;;5.00;;
3211;SDS011;1618;47.056;15.472;2023-06-14T01:44:11;5.80;;;5.60;;
3211;SDS011;1618;47.056;15.472;2023-06-14T01:46:39;6.53;;;6.23;;
3211;SDS011;1618;47.056;15.472;2023-06-14T01:49:07;6.10;;;5.80;;
3211;SDS011;1618;47.056;15.472;2023-06-14T01:51:35;5.43;;;5.23;;
3211;SDS011;1618;47.056;15.472;2023-06-14T01:54:02;4.80;;;4.60;;
3211;SDS011;1618;47.056;15.472;2023-06-14T01:56:33;5.57;;;5.20;;
3211;SDS011;1618;47.056;15.472;2023-06-14T01:59:00;5.27;;;5.07;;
3211;SDS011;1618;47.056;15.472;2023-06-14T02:01:29;4.90;;;4.70;;
3211;SDS011;1618;47.056;15.472;2023-06-14T02:04:00;5.20;;;5.00;;
3211;SDS011;1618;47.056;15.472;2023-06-14T02:06:29;5.00;;;4.80;;
3211;SDS011;1618;47.056;15.472;2023-06-14T02:08:57;4.80;;;4.60;;
3211;SDS011;1618;47.056;15.472;2023-06-14T02:11:24;5.43;;;5.20;;
3211;SDS011;1618;47.056;15.472;2023-06-14T02:13:55;5.10;;;4.90;;
3211;SDS011;1618;47.056;15.472;2023-06-14T02:16:27;4.90;;;4.70;;
3211;SDS011;1618;47.056;15.472;2023-06-14T02:18:54;5.27;;;4.97;;
3211;SDS011;1618;47.056;15.472;2023-06-14T02:21:23;4.80;;;4.60;;
3211;SDS011;1618;47.056;15.472;2023-06-14T02:23:51;5.83;;;5.53;;
3211;SDS011;1618;47.056;15.472;2023-06-14T02:26:20;6.17;;;5.80;;
3211;SDS011;1618;47.056;15.472;2023-06-14T02:28:50;5.70;;;5.30;;
3211;SDS011;1618;47.056;15.472;2023-06-14T02:31:19;5.40;;;5.00;;
3211;SDS011;1618;47.056;15.472;2023-06-14T02:33:47;4.30;;;4.10;;
3211;SDS011;1618;47.056;15.472;2023-06-14T02:36:15;5.33;;;5.13;;
3211;SDS011;1618;47.056;15.472;2023-06-14T02:38:42;6.63;;;5.97;;
3211;SDS011;1618;47.056;15.472;2023-06-14T02:41:10;6.97;;;6.67;;
3211;SDS011;1618;47.056;15.472;2023-06-14T02:43:38;6.23;;;5.83;;
3211;SDS011;1618;47.056;15.472;2023-06-14T02:46:07;5.97;;;5.73;;
3211;SDS011;1618;47.056;15.472;2023-06-14T02:48:36;5.90;;;5.60;;
3211;SDS011;1618;47.056;15.472;2023-06-14T02:51:04;7.60;;;7.30;;
3211;SDS011;1618;47.056;15.472;2023-06-14T02:53:31;8.53;;;8.13;;
3211;SDS011;1618;47.056;15.472;2023-06-14T02:55:59;8.87;;;8.47;;
3211;SDS011;1618;47.056;15.472;2023-06-14T02:58:29;8.80;;;8.40;;
3211;SDS011;1618;47.056;15.472;2023-06-14T03:01:00;10.67;;;10.17;;
3211;SDS011;1618;47.056;15.472;2023-06-14T03:03:28;10.73;;;10.23;;
3211;SDS011;1618;47.056;15.472;2023-06-14T03:05:58;11.43;;;10.93;;
3211;SDS011;1618;47.056;15.472;2023-06-14T03:08:30;11.30;;;10.70;;
3211;SDS011;1618;47.056;15.472;2023-06-14T03:11:03;10.47;;;9.90;;
3211;SDS011;1618;47.056;15.472;2023-06-14T03:13:32;8.30;;;7.93;;
3211;SDS011;1618;47.056;15.472;2023-06-14T03:15:59;8.43;;;8.03;;
3211;SDS011;1618;47.056;15.472;2023-06-14T03:18:29;7.37;;;7.07;;
3211;SDS011;1618;47.056;15.472;2023-06-14T03:21:01;6.97;;;6.67;;
3211;SDS011;1618;47.056;15.472;2023-06-14T03:23:29;7.30;;;6.90;;
3211;SDS011;1618;47.056;15.472;2023-06-14T03:25:56;6.67;;;6.37;;
3211;SDS011;1618;47.056;15.472;2023-06-14T03:28:24;6.30;;;6.10;;
3211;SDS011;1618;47.056;15.472;2023-06-14T03:30:53;7.00;;;6.70;;
3211;SDS011;1618;47.056;15.472;2023-06-14T03:33:20;7.47;;;7.10;;
3211;SDS011;1618;47.056;15.472;2023-06-14T03:35:49;8.13;;;7.80;;
3211;SDS011;1618;47.056;15.472;2023-06-14T03:38:18;8.93;;;8.53;;
3211;SDS011;1618;47.056;15.472;2023-06-14T03:40:45;9.10;;;8.70;;
3211;SDS011;1618;47.056;15.472;2023-06-14T03:43:14;11.97;;;11.47;;
3211;SDS011;1618;47.056;15.472;2023-06-14T03:45:42;10.30;;;9.80;;
3211;SDS011;1618;47.056;15.472;2023-06-14T03:48:09;11.50;;;11.00;;
3211;SDS011;1618;47.056;15.472;2023-06-14T03:50:38;10.70;;;10.20;;
3211;SDS011;1618;47.056;15.472;2023-06-14T03:53:05;9.90;;;9.50;;
3211;SDS011;1618;47.056;15.472;2023-06-14T03:55:34;11.37;;;10.77;;
3211;SDS011;1618;47.056;15.472;2023-06-14T03:58:04;11.50;;;10.70;;
3211;SDS011;1618;47.056;15.472;2023-06-14T04:00:32;9.60;;;9.20;;
3211;SDS011;1618;47.056;15.472;2023-06-14T04:03:02;9.67;;;9.07;;
3211;SDS011;1618;47.056;15.472;2023-06-14T04:05:30;10.70;;;10.20;;
3211;SDS011;1618;47.056;15.472;2023-06-14T04:07:58;11.23;;;10.73;;
3211;SDS011;1618;47.056;15.472;2023-06-14T04:10:26;10.30;;;9.80;;
3211;SDS011;1618;47.056;15.472;2023-06-14T04:12:55;9.07;;;8.67;;
3211;SDS011;1618;47.056;15.472;2023-06-14T04:15:22;9.40;;;9.00;;
3211;SDS011;1618;47.056;15.472;2023-06-14T04:17:51;10.73;;;10.17;;
3211;SDS011;1618;47.056;15.472;2023-06-14T04:20:22;10.23;;;9.83;;
3211;SDS011;1618;47.056;15.472;2023-06-14T04:22:51;8.50;;;8.10;;
3211;SDS011;1618;47.056;15.472;2023-06-14T04:25:19;9.77;;;9.37;;
3211;SDS011;1618;47.056;15.472;2023-06-14T04:27:48;11.90;;;11.40;;
3211;SDS011;1618;47.056;15.472;2023-06-14T04:30:17;11.10;;;10.60;;
3211;SDS011;1618;47.056;15.472;2023-06-14T04:32:45;11.30;;;10.80;;
3211;SDS011;1618;47.056;15.472;2023-06-14T04:35:13;12.43;;;11.83;;
3211;SDS011;1618;47.056;15.472;2023-06-14T04:37:41;11.37;;;10.77;;
3211;SDS011;1618;47.056;15.472;2023-06-14T04:40:10;11.00;;;10.60;;
3211;SDS011;1618;47.056;15.472;2023-06-14T04:42:38;12.23;;;11.67;;
3211;SDS011;1618;47.056;15.472;2023-06-14T04:45:06;13.33;;;12.70;;
3211;SDS011;1618;47.056;15.472;2023-06-14T04:47:35;13.50;;;12.80;;
3211;SDS011;1618;47.056;15.472;2023-06-14T04:50:04;13.73;;;13.03;;
3211;SDS011;1618;47.056;15.472;2023-06-14T04:52:31;14.30;;;13.50;;
3211;SDS011;1618;47.056;15.472;2023-06-14T04:55:02;13.80;;;13.10;;
3211;SDS011;1618;47.056;15.472;2023-06-14T04:57:31;13.90;;;13.30;;
3211;SDS011;1618;47.056;15.472;2023-06-14T05:00:00;14.03;;;13.37;;
3211;SDS011;1618;47.056;15.472;2023-06-14T05:02:37;14.37;;;13.67;;
3211;SDS011;1618;47.056;15.472;2023-06-14T05:05:06;13.87;;;13.17;;
3211;SDS011;1618;47.056;15.472;2023-06-14T05:07:35;13.20;;;12.60;;
3211;SDS011;1618;47.056;15.472;2023-06-14T05:10:13;12.80;;;12.20;;
3211;SDS011;1618;47.056;15.472;2023-06-14T05:12:42;12.50;;;11.80;;
3211;SDS011;1618;47.056;15.472;2023-06-14T05:15:09;12.40;;;11.90;;
3211;SDS011;1618;47.056;15.472;2023-06-14T05:17:39;10.70;;;10.20;;
3211;SDS011;1618;47.056;15.472;2023-06-14T05:20:07;11.60;;;11.10;;
3211;SDS011;1618;47.056;15.472;2023-06-14T05:22:37;13.20;;;12.60;;
3211;SDS011;1618;47.056;15.472;2023-06-14T05:25:05;11.77;;;11.27;;
3211;SDS011;1618;47.056;15.472;2023-06-14T05:27:33;10.70;;;10.20;;
3211;SDS011;1618;47.056;15.472;2023-06-14T05:30:02;12.27;;;11.67;;
3211;SDS011;1618;47.056;15.472;2023-06-14T05:32:30;13.13;;;12.53;;
3211;SDS011;1618;47.056;15.472;2023-06-14T05:34:58;12.57;;;12.00;;
3211;SDS011;1618;47.056;15.472;2023-06-14T05:37:28;12.87;;;12.27;;
3211;SDS011;1618;47.056;15.472;2023-06-14T05:39:56;11.17;;;10.67;;
3211;SDS011;1618;47.056;15.472;2023-06-14T05:42:23;8.80;;;8.40;;
3211;SDS011;1618;47.056;15.472;2023-06-14T05:44:51;10.10;;;9.60;;
3211;SDS011;1618;47.056;15.472;2023-06-14T05:47:19;10.30;;;9.90;;
3211;SDS011;1618;47.056;15.472;2023-06-14T05:49:46;10.00;;;9.60;;
3211;SDS011;1618;47.056;15.472;2023-06-14T05:52:16;10.63;;;10.13;;
3211;SDS011;1618;47.056;15.472;2023-06-14T05:54:44;10.20;;;9.70;;
3211;SDS011;1618;47.056;15.472;2023-06-14T05:57:11;9.70;;;9.20;;
3211;SDS011;1618;47.056;15.472;2023-06-14T05:59:38;9.57;;;9.17;;
3211;SDS011;1618;47.056;15.472;2023-06-14T06:02:09;9.87;;;9.47;;
3211;SDS011;1618;47.056;15.472;2023-06-14T06:04:37;12.13;;;11.63;;
3211;SDS011;1618;47.056;15.472;2023-06-14T06:07:05;10.40;;;9.90;;
3211;SDS011;1618;47.056;15.472;2023-06-14T06:09:35;9.30;;;8.90;;
3211;SDS011;1618;47.056;15.472;2023-06-14T06:12:04;8.00;;;7.67;;
3211;SDS011;1618;47.056;15.472;2023-06-14T06:14:32;6.90;;;6.60;;
3211;SDS011;1618;47.056;15.472;2023-06-14T06:17:00;6.87;;;6.53;;
3211;SDS011;1618;47.056;15.472;2023-06-14T06:19:30;6.37;;;6.07;;
3211;SDS011;1618;47.056;15.472;2023-06-14T06:21:59;6.73;;;6.33;;
3211;SDS011;1618;47.056;15.472;2023-06-14T06:24:27;6.00;;;5.70;;
3211;SDS011;1618;47.056;15.472;2023-06-14T06:26:57;6.00;;;5.60;;
3211;SDS011;1618;47.056;15.472;2023-06-14T06:29:26;5.90;;;5.60;;
3211;SDS011;1618;47.056;15.472;2023-06-14T06:31:54;4.90;;;4.60;;
3211;SDS011;1618;47.056;15.472;2023-06-14T06:34:22;5.00;;;4.70;;
3211;SDS011;1618;47.056;15.472;2023-06-14T06:36:51;4.23;;;4.03;;
3211;SDS011;1618;47.056;15.472;2023-06-14T06:39:20;4.23;;;4.03;;
3211;SDS011;1618;47.056;15.472;2023-06-14T06:41:47;4.37;;;4.17;;
3211;SDS011;1618;47.056;15.472;2023-06-14T06:44:21;4.13;;;3.93;;
3211;SDS011;1618;47.056;15.472;2023-06-14T06:46:48;4.07;;;3.77;;
3211;SDS011;1618;47.056;15.472;2023-06-14T06:49:16;4.00;;;3.80;;
3211;SDS011;1618;47.056;15.472;2023-06-14T06:51:58;4.27;;;4.07;;
3211;SDS011;1618;47.056;15.472;2023-06-14T06:54:27;5.50;;;5.20;;
3211;SDS011;1618;47.056;15.472;2023-06-14T06:56:57;4.93;;;4.63;;
3211;SDS011;1618;47.056;15.472;2023-06-14T06:59:25;5.07;;;4.87;;
3211;SDS011;1618;47.056;15.472;2023-06-14T07:01:54;4.50;;;4.30;;
3211;SDS011;1618;47.056;15.472;2023-06-14T07:04:22;5.20;;;4.90;;
3211;SDS011;1618;47.056;15.472;2023-06-14T07:06:49;5.47;;;5.27;;
3211;SDS011;1618;47.056;15.472;2023-06-14T07:09:18;4.13;;;3.93;;
3211;SDS011;1618;47.056;15.472;2023-06-14T07:11:47;4.43;;;4.23;;
3211;SDS011;1618;47.056;15.472;2023-06-14T07:14:15;4.87;;;4.67;;
3211;SDS011;1618;47.056;15.472;2023-06-14T07:16:45;4.90;;;4.60;;
3211;SDS011;1618;47.056;15.472;2023-06-14T07:19:14;5.10;;;4.80;;
3211;SDS011;1618;47.056;15.472;2023-06-14T07:21:43;5.23;;;5.03;;
3211;SDS011;1618;47.056;15.472;2023-06-14T07:24:11;5.27;;;4.90;;
3211;SDS011;1618;47.056;15.472;2023-06-14T07:26:39;3.17;;;3.07;;
3211;SDS011;1618;47.056;15.472;2023-06-14T07:29:10;4.00;;;3.70;;
3211;SDS011;1618;47.056;15.472;2023-06-14T07:31:37;4.00;;;3.80;;
3211;SDS011;1618;47.056;15.472;2023-06-14T07:34:07;4.27;;;3.97;;
3211;SDS011;1618;47.056;15.472;2023-06-14T07:36:34;4.43;;;4.23;;
3211;SDS011;1618;47.056;15.472;2023-06-14T07:39:02;4.57;;;4.27;;
3211;SDS011;1618;47.056;15.472;2023-06-14T07:41:31;4.70;;;4.50;;
3211;SDS011;1618;47.056;15.472;2023-06-14T07:44:00;4.67;;;4.43;;
3211;SDS011;1618;47.056;15.472;2023-06-14T07:46:27;4.70;;;4.50;;
3211;SDS011;1618;47.056;15.472;2023-06-14T07:48:56;5.80;;;5.40;;
3211;SDS011;1618;47.056;15.472;2023-06-14T07:51:27;5.77;;;5.47;;
3211;SDS011;1618;47.056;15.472;2023-06-14T07:53:54;5.00;;;4.80;;
3211;SDS011;1618;47.056;15.472;2023-06-14T07:56:22;4.90;;;4.70;;
3211;SDS011;1618;47.056;15.472;2023-06-14T07:58:50;5.60;;;5.30;;
3211;SDS011;1618;47.056;15.472;2023-06-14T08:01:18;5.50;;;5.20;;
3211;SDS011;1618;47.056;15.472;2023-06-14T08:03:46;5.40;;;5.10;;
3211;SDS011;1618;47.056;15.472;2023-06-14T08:06:15;5.57;;;5.30;;
3211;SDS011;1618;47.056;15.472;2023-06-14T08:08:44;6.00;;;5.60;;
3211;SDS011;1618;47.056;15.472;2023-06-14T08:11:12;5.53;;;5.23;;
3211;SDS011;1618;47.056;15.472;2023-06-14T08:13:39;5.03;;;4.73;;
3211;SDS011;1618;47.056;15.472;2023-06-14T08:16:06;5.40;;;5.20;;
3211;SDS011;1618;47.056;15.472;2023-06-14T08:18:36;6.67;;;6.27;;
3211;SDS011;1618;47.056;15.472;2023-06-14T08:21:05;7.17;;;6.67;;
3211;SDS011;1618;47.056;15.472;2023-06-14T08:23:34;7.97;;;7.53;;
3211;SDS011;1618;47.056;15.472;2023-06-14T08:26:04;7.93;;;7.53;;
3211;SDS011;1618;47.056;15.472;2023-06-14T08:28:33;7.10;;;6.70;;
3211;SDS011;1618;47.056;15.472;2023-06-14T08:31:08;5.43;;;5.23;;
3211;SDS011;1618;47.056;15.472;2023-06-14T08:33:36;7.43;;;7.13;;
3211;SDS011;1618;47.056;15.472;2023-06-14T08:36:04;9.60;;;9.10;;
3211;SDS011;1618;47.056;15.472;2023-06-14T08:38:38;6.30;;;5.70;;
3211;SDS011;1618;47.056;15.472;2023-06-14T08:41:16;5.90;;;5.50;;
3211;SDS011;1618;47.056;15.472;2023-06-14T08:43:58;8.93;;;8.32;;
3211;SDS011;1618;47.056;15.472;2023-06-14T08:46:25;4.53;;;4.30;;
3211;SDS011;1618;47.056;15.472;2023-06-14T08:48:59;5.20;;;4.80;;
3211;SDS011;1618;47.056;15.472;2023-06-14T08:51:29;4.07;;;3.60;;
3211;SDS011;1618;47.056;15.472;2023-06-14T08:54:02;3.77;;;3.47;;
3211;SDS011;1618;47.056;15.472;2023-06-14T08:56:35;6.50;;;3.20;;
3211;SDS011;1618;47.056;15.472;2023-06-14T08:59:15;3.43;;;3.23;;
3211;SDS011;1618;47.056;15.472;2023-06-14T09:02:07;2.90;;;2.80;;
3211;SDS011;1618;47.056;15.472;2023-06-14T09:04:49;3.40;;;3.20;;
3211;SDS011;1618;47.056;15.472;2023-06-14T09:07:31;4.30;;;2.73;;
3211;SDS011;1618;47.056;15.472;2023-06-14T09:10:13;3.87;;;3.03;;
3211;SDS011;1618;47.056;15.472;2023-06-14T09:12:44;3.13;;;2.93;;
3211;SDS011;1618;47.056;15.472;2023-06-14T09:15:21;3.07;;;2.83;;
3211;SDS011;1618;47.056;15.472;2023-06-14T09:25:56;3.10;;;2.90;;
3211;SDS011;1618;47.056;15.472;2023-06-14T09:28:28;3.43;;;3.20;;
3211;SDS011;1618;47.056;15.472;2023-06-14T09:30:57;2.90;;;2.77;;
3211;SDS011;1618;47.056;15.472;2023-06-14T09:33:25;3.13;;;2.93;;
3211;SDS011;1618;47.056;15.472;2023-06-14T09:35:53;3.40;;;3.10;;
3211;SDS011;1618;47.056;15.472;2023-06-14T09:38:21;4.10;;;3.80;;
3211;SDS011;1618;47.056;15.472;2023-06-14T09:40:49;3.97;;;3.67;;
3211;SDS011;1618;47.056;15.472;2023-06-14T09:43:17;4.40;;;4.10;;
3211;SDS011;1618;47.056;15.472;2023-06-14T09:45:46;4.10;;;3.87;;
3211;SDS011;1618;47.056;15.472;2023-06-14T09:48:14;3.50;;;3.40;;
3211;SDS011;1618;47.056;15.472;2023-06-14T09:50:44;3.70;;;3.50;;
3211;SDS011;1618;47.056;15.472;2023-06-14T09:53:13;4.60;;;4.23;;
3211;SDS011;1618;47.056;15.472;2023-06-14T09:55:41;3.90;;;3.70;;
3211;SDS011;1618;47.056;15.472;2023-06-14T09:58:09;3.80;;;3.60;;
3211;SDS011;1618;47.056;15.472;2023-06-14T10:00:38;4.20;;;3.90;;
3211;SDS011;1618;47.056;15.472;2023-06-14T10:03:12;4.13;;;3.87;;
3211;SDS011;1618;47.056;15.472;2023-06-14T10:05:43;4.43;;;4.00;;
3211;SDS011;1618;47.056;15.472;2023-06-14T10:08:23;5.13;;;4.73;;
3211;SDS011;1618;47.056;15.472;2023-06-14T10:10:55;4.43;;;4.13;;
3211;SDS011;1618;47.056;15.472;2023-06-14T10:13:23;3.90;;;3.60;;
3211;SDS011;1618;47.056;15.472;2023-06-14T10:15:54;3.23;;;3.03;;
3211;SDS011;1618;47.056;15.472;2023-06-14T10:18:27;3.60;;;3.30;;
3211;SDS011;1618;47.056;15.472;2023-06-14T10:21:02;3.13;;;2.90;;
3211;SDS011;1618;47.056;15.472;2023-06-14T10:23:36;3.40;;;3.20;;
3211;SDS011;1618;47.056;15.472;2023-06-14T10:29:18;4.97;;;4.77;;
3211;SDS011;1618;47.056;15.472;2023-06-14T10:34:54;4.80;;;4.50;;
3211;SDS011;1618;47.056;15.472;2023-06-14T10:37:22;4.73;;;4.53;;
3211;SDS011;1618;47.056;15.472;2023-06-14T10:42:54;7.93;;;7.53;;
3211;SDS011;1618;47.056;15.472;2023-06-14T10:45:24;5.70;;;5.40;;
3211;SDS011;1618;47.056;15.472;2023-06-14T10:47:52;14.60;;;13.80;;
3211;SDS011;1618;47.056;15.472;2023-06-14T10:50:28;10.37;;;9.87;;
3211;SDS011;1618;47.056;15.472;2023-06-14T10:56:04;8.70;;;8.30;;
3211;SDS011;1618;47.056;15.472;2023-06-14T10:58:36;5.57;;;5.27;;
3211;SDS011;1618;47.056;15.472;2023-06-14T11:01:04;7.07;;;4.43;;
3211;SDS011;1618;47.056;15.472;2023-06-14T11:03:40;4.63;;;4.43;;
3211;SDS011;1618;47.056;15.472;2023-06-14T11:06:14;6.07;;;5.77;;
3211;SDS011;1618;47.056;15.472;2023-06-14T11:11:42;30.33;;;28.43;;
3211;SDS011;1618;47.056;15.472;2023-06-14T11:17:02;29.70;;;27.40;;
3211;SDS011;1618;47.056;15.472;2023-06-14T11:19:29;31.10;;;28.50;;
3211;SDS011;1618;47.056;15.472;2023-06-14T11:22:08;31.90;;;29.20;;
3211;SDS011;1618;47.056;15.472;2023-06-14T11:24:50;31.93;;;29.33;;
3211;SDS011;1618;47.056;15.472;2023-06-14T11:27:21;31.50;;;28.80;;
3211;SDS011;1618;47.056;15.472;2023-06-14T11:32:54;29.80;;;27.40;;
3211;SDS011;1618;47.056;15.472;2023-06-14T11:44:31;29.20;;;27.00;;
3211;SDS011;1618;47.056;15.472;2023-06-14T11:50:04;29.23;;;26.97;;
3211;SDS011;1618;47.056;15.472;2023-06-14T11:52:34;29.20;;;26.80;;
3211;SDS011;1618;47.056;15.472;2023-06-14T11:55:02;28.93;;;26.73;;
3211;SDS011;1618;47.056;15.472;2023-06-14T11:57:32;28.03;;;25.83;;
3211;SDS011;1618;47.056;15.472;2023-06-14T12:00:04;29.03;;;26.93;;
3211;SDS011;1618;47.056;15.472;2023-06-14T12:02:39;29.80;;;27.50;;
3211;SDS011;1618;47.056;15.472;2023-06-14T12:05:07;29.93;;;27.63;;
3211;SDS011;1618;47.056;15.472;2023-06-14T12:07:36;29.73;;;27.50;;
3211;SDS011;1618;47.056;15.472;2023-06-14T12:10:05;30.50;;;28.30;;
3211;SDS011;1618;47.056;15.472;2023-06-14T12:12:35;32.43;;;29.93;;
3211;SDS011;1618;47.056;15.472;2023-06-14T12:15:05;32.17;;;29.67;;
3211;SDS011;1618;47.056;15.472;2023-06-14T12:17:38;32.83;;;30.03;;
3211;SDS011;1618;47.056;15.472;2023-06-14T12:20:13;33.20;;;30.50;;
3211;SDS011;1618;47.056;15.472;2023-06-14T12:22:47;32.73;;;29.97;;
3211;SDS011;1618;47.056;15.472;2023-06-14T12:25:22;33.87;;;31.17;;
3211;SDS011;1618;47.056;15.472;2023-06-14T12:27:52;34.23;;;31.43;;
3211;SDS011;1618;47.056;15.472;2023-06-14T12:30:20;35.23;;;32.43;;
3211;SDS011;1618;47.056;15.472;2023-06-14T12:32:48;30.40;;;27.90;;
3211;SDS011;1618;47.056;15.472;2023-06-14T12:35:17;29.50;;;27.00;;
3211;SDS011;1618;47.056;15.472;2023-06-14T12:37:47;30.50;;;27.90;;
3211;SDS011;1618;47.056;15.472;2023-06-14T12:40:15;30.33;;;27.73;;
3211;SDS011;1618;47.056;15.472;2023-06-14T12:42:44;29.10;;;26.60;;
3211;SDS011;1618;47.056;15.472;2023-06-14T12:45:12;31.90;;;29.40;;
3211;SDS011;1618;47.056;15.472;2023-06-14T12:47:42;31.90;;;29.33;;
3211;SDS011;1618;47.056;15.472;2023-06-14T12:50:10;32.37;;;29.60;;
3211;SDS011;1618;47.056;15.472;2023-06-14T12:52:37;31.70;;;29.10;;
3211;SDS011;1618;47.056;15.472;2023-06-14T12:55:05;32.10;;;29.50;;
3211;SDS011;1618;47.056;15.472;2023-06-14T12:57:34;31.83;;;29.20;;
3211;SDS011;1618;47.056;15.472;2023-06-14T13:00:05;32.73;;;29.93;;
3211;SDS011;1618;47.056;15.472;2023-06-14T13:02:34;33.60;;;30.90;;
3211;SDS011;1618;47.056;15.472;2023-06-14T13:05:04;33.73;;;31.03;;
3211;SDS011;1618;47.056;15.472;2023-06-14T13:07:32;32.40;;;29.80;;
3211;SDS011;1618;47.056;15.472;2023-06-14T13:09:59;32.70;;;30.00;;
3211;SDS011;1618;47.056;15.472;2023-06-14T13:12:27;32.67;;;30.07;;
3211;SDS011;1618;47.056;15.472;2023-06-14T13:14:55;33.10;;;30.40;;
3211;SDS011;1618;47.056;15.472;2023-06-14T13:17:24;31.63;;;29.13;;
3211;SDS011;1618;47.056;15.472;2023-06-14T13:19:53;31.80;;;29.00;;
3211;SDS011;1618;47.056;15.472;2023-06-14T13:22:26;31.53;;;29.03;;
3211;SDS011;1618;47.056;15.472;2023-06-14T13:24:53;32.53;;;30.10;;
3211;SDS011;1618;47.056;15.472;2023-06-14T13:27:21;32.27;;;29.77;;
3211;SDS011;1618;47.056;15.472;2023-06-14T13:29:49;31.30;;;29.00;;
3211;SDS011;1618;47.056;15.472;2023-06-14T13:32:17;31.97;;;29.57;;
3211;SDS011;1618;47.056;15.472;2023-06-14T13:34:45;31.00;;;28.80;;
3211;SDS011;1618;47.056;15.472;2023-06-14T13:37:14;34.33;;;31.93;;
3211;SDS011;1618;47.056;15.472;2023-06-14T13:39:43;33.67;;;31.17;;
3211;SDS011;1618;47.056;15.472;2023-06-14T13:42:10;32.07;;;29.77;;
3211;SDS011;1618;47.056;15.472;2023-06-14T13:44:39;32.07;;;29.73;;
3211;SDS011;1618;47.056;15.472;2023-06-14T13:47:10;30.83;;;28.53;;
3211;SDS011;1618;47.056;15.472;2023-06-14T13:49:38;31.00;;;28.60;;
3211;SDS011;1618;47.056;15.472;2023-06-14T13:52:06;29.37;;;27.17;;
3211;SDS011;1618;47.056;15.472;2023-06-14T13:54:36;29.27;;;27.07;;
3211;SDS011;1618;47.056;15.472;2023-06-14T13:57:05;30.60;;;28.20;;
3211;SDS011;1618;47.056;15.472;2023-06-14T13:59:33;30.30;;;27.80;;
3211;SDS011;1618;47.056;15.472;2023-06-14T14:02:01;29.27;;;26.97;;
3211;SDS011;1618;47.056;15.472;2023-06-14T14:04:29;30.43;;;28.23;;
3211;SDS011;1618;47.056;15.472;2023-06-14T14:06:58;30.40;;;28.00;;
3211;SDS011;1618;47.056;15.472;2023-06-14T14:09:26;31.13;;;28.63;;
3211;SDS011;1618;47.056;15.472;2023-06-14T14:11:54;31.40;;;28.90;;
3211;SDS011;1618;47.056;15.472;2023-06-14T14:14:23;30.63;;;28.13;;
3211;SDS011;1618;47.056;15.472;2023-06-14T14:16:51;31.00;;;28.40;;
3211;SDS011;1618;47.056;15.472;2023-06-14T14:19:22;31.33;;;28.63;;
3211;SDS011;1618;47.056;15.472;2023-06-14T14:21:50;31.80;;;29.20;;
3211;SDS011;1618;47.056;15.472;2023-06-14T14:24:19;31.63;;;29.23;;
3211;SDS011;1618;47.056;15.472;2023-06-14T14:26:52;30.50;;;28.00;;
3211;SDS011;1618;47.056;15.472;2023-06-14T14:29:19;33.17;;;30.30;;
3211;SDS011;1618;47.056;15.472;2023-06-14T14:31:49;33.57;;;30.73;;
3211;SDS011;1618;47.056;15.472;2023-06-14T14:34:17;32.80;;;30.10;;
3211;SDS011;1618;47.056;15.472;2023-06-14T14:36:45;33.33;;;30.63;;
3211;SDS011;1618;47.056;15.472;2023-06-14T14:39:13;32.00;;;29.50;;
3211;SDS011;1618;47.056;15.472;2023-06-14T14:41:41;32.63;;;29.93;;
3211;SDS011;1618;47.056;15.472;2023-06-14T14:44:09;32.60;;;30.00;;
3211;SDS011;1618;47.056;15.472;2023-06-14T14:46:39;31.83;;;29.23;;
3211;SDS011;1618;47.056;15.472;2023-06-14T14:49:08;31.90;;;29.20;;
3211;SDS011;1618;47.056;15.472;2023-06-14T14:51:36;30.97;;;28.30;;
3211;SDS011;1618;47.056;15.472;2023-06-14T14:54:05;31.37;;;28.57;;
3211;SDS011;1618;47.056;15.472;2023-06-14T14:56:33;30.83;;;28.13;;
3211;SDS011;1618;47.056;15.472;2023-06-14T14:59:04;30.80;;;28.10;;
3211;SDS011;1618;47.056;15.472;2023-06-14T15:01:32;30.60;;;28.00;;
3211;SDS011;1618;47.056;15.472;2023-06-14T15:03:59;40.90;;;37.37;;
3211;SDS011;1618;47.056;15.472;2023-06-14T15:06:28;32.87;;;30.17;;
3211;SDS011;1618;47.056;15.472;2023-06-14T15:08:56;31.53;;;28.80;;
3211;SDS011;1618;47.056;15.472;2023-06-14T15:11:25;30.90;;;28.30;;
3211;SDS011;1618;47.056;15.472;2023-06-14T15:13:53;32.47;;;29.97;;
3211;SDS011;1618;47.056;15.472;2023-06-14T15:16:21;32.70;;;30.20;;
3211;SDS011;1618;47.056;15.472;2023-06-14T15:18:50;32.60;;;29.80;;
3211;SDS011;1618;47.056;15.472;2023-06-14T15:21:19;33.50;;;30.70;;
3211;SDS011;1618;47.056;15.472;2023-06-14T15:23:49;32.63;;;30.03;;
3211;SDS011;1618;47.056;15.472;2023-06-14T15:26:20;31.80;;;29.10;;
3211;SDS011;1618;47.056;15.472;2023-06-14T15:28:49;32.93;;;30.53;;
3211;SDS011;1618;47.056;15.472;2023-06-14T15:31:16;33.20;;;30.50;;
3211;SDS011;1618;47.056;15.472;2023-06-14T15:33:45;32.97;;;30.37;;
3211;SDS011;1618;47.056;15.472;2023-06-14T15:36:12;32.33;;;29.83;;
3211;SDS011;1618;47.056;15.472;2023-06-14T15:38:40;31.37;;;28.77;;
3211;SDS011;1618;47.056;15.472;2023-06-14T15:41:09;32.40;;;29.60;;
3211;SDS011;1618;47.056;15.472;2023-06-14T15:43:39;31.67;;;28.97;;